Overview Statistics Trail Chart Weather Telemetry Raw packets
 

This is the latest recevied weather packets stored in our database for station/object MB7UKB-10. If no packets are shown the sender has not sent any weather packets the latest 10 day(s).

<< 8 9 10 11 12 13 14 >>
Time Temp. Humidity Pressure Rain* Wind** Luminosity Snow
1788242434 11.11° C 92% 1020.3 hPa 0 mm - - -
1788240634 10.56° C 94% 1020.3 hPa 0 mm - - -
1788238833 10.56° C 93% 1020.1 hPa 0 mm - - -
1788237034 10.56° C 93% 1020 hPa 0 mm - - -
1788235234 10.56° C 92% 1019.7 hPa 0 mm - - -
1788233434 11.11° C 91% 1019.7 hPa 0 mm - - -
1788231633 11.67° C 89% 1019.8 hPa 0 mm - - -
1788229833 11.67° C 87% 1019.7 hPa 0 mm - - -
1788228033 12.22° C 84% 1019.7 hPa 0 mm - - -
1788226233 12.78° C 83% 1019.7 hPa 0 mm - - -
1788224434 13.33° C 80% 1019.5 hPa 0 mm - - -
1788222634 13.89° C 78% 1019.4 hPa 0 mm - - -
1788220833 14.44° C 74% 1019.4 hPa 0 mm - - -
1788219035 15° C 70% 1019.5 hPa 0 mm - - -
1788216326 16.11° C 67% 1019.3 hPa 0 mm - - -
1788214527 16.67° C 66% 1019 hPa 0 mm - - -
1788212727 16.67° C 64% 1018.9 hPa 0 mm - - -
1788210927 17.22° C 63% 1018.7 hPa 0 mm - - -
1788209126 17.78° C 63% 1018.2 hPa 0 mm - - -
1788205526 18.33° C 63% 1017.6 hPa 0 mm - - -
1788203726 18.33° C 63% 1017 hPa 0 mm - - -
1788201926 19.44° C 61% 1016.8 hPa 0 mm - - -
1788200127 20° C 59% 1016.5 hPa 0 mm - - -
1788198327 20.56° C 57% 1016.1 hPa 0 mm - - -
1788196527 21.11° C 58% 1015.5 hPa 0 mm - - -

* Rain latest hour (hover to see other rain measurements)
** Current wind speed in m/s (hover to see current wind gust speed)